Time;durP1;ratioP1;P1;durP2;ratioP2;P2;SDS_P1;SDS_P2;PMS_P1;PMS_P2;Temp;Humidity;BMP_temperature;BMP_pressure;BME280_temperature;BME280_humidity;BME280_pressure;Samples;Min_cycle;Max_cycle;Signal;HPM_P1;HPM_P2
2022/07/17 00:00:28;;;;;;;;;;;;;;;;;;2141231;27;20446;-45
2022/07/17 00:01:29;;;;;;;;;;;;;;;;;;2141681;27;20152;-45
2022/07/17 00:02:29;;;;;;;;;;;;;;;;;;2141396;27;19966;-45
2022/07/17 00:03:31;;;;;;;;;;;;;;;;;;2141468;27;19922;-47
2022/07/17 00:04:31;;;;;;;;;;;;;;;;;;2141331;27;20361;-45
2022/07/17 00:05:32;;;;;;;;;;;;;;;;;;2141399;27;19926;-44
2022/07/17 00:06:33;;;;;;;;;;;;;;;;;;2141203;27;20379;-46
2022/07/17 00:07:34;;;;;;;;;;;;;;;;;;2141442;27;19923;-44
2022/07/17 00:08:35;;;;;;;;;;;;;;;;;;2141653;27;19923;-45
2022/07/17 00:09:36;;;;;;;;;;;;;;;;;;2141265;27;19923;-45
2022/07/17 00:10:37;;;;;;;;;;;;;;;;;;2141506;27;19923;-46
2022/07/17 00:11:38;;;;;;;;;;;;;;;;;;2134935;27;20368;-45
2022/07/17 00:12:38;;;;;;;;;;;;;;;;;;2132810;27;19924;-45
2022/07/17 00:13:39;;;;;;;;;;;;;;;;;;2132847;27;19968;-45
2022/07/17 00:14:40;;;;;;;;;;;;;;;;;;2133080;27;19923;-46
2022/07/17 00:15:41;;;;;;;;;;;;;;;;;;2132641;27;19967;-46
2022/07/17 00:16:42;;;;;;;;;;;;;;;;;;2132725;27;19977;-46
2022/07/17 00:17:43;;;;;;;;;;;;;;;;;;2132599;27;19966;-46
2022/07/17 00:18:43;;;;;;;;;;;;;;;;;;2132737;27;19976;-45
2022/07/17 00:19:44;;;;;;;;;;;;;;;;;;2138461;27;19922;-46
2022/07/17 00:20:45;;;;;;;;;;;;;;;;;;2141137;27;20010;-46
2022/07/17 00:21:46;;;;;;;;;;;;;;;;;;2141170;27;19929;-45
2022/07/17 00:22:47;;;;;;;;;;;;;;;;;;2141234;27;19962;-45
2022/07/17 00:23:48;;;;;;;;;;;;;;;;;;2141269;27;20010;-46
2022/07/17 00:24:49;;;;;;;;;;;;;;;;;;2141194;27;20018;-46
2022/07/17 00:25:50;;;;;;;;;;;;;;;;;;2141222;27;19961;-46
2022/07/17 00:26:50;;;;;;;;;;;;;;;;;;2141221;27;19954;-46
2022/07/17 00:27:51;;;;;;;;;;;;;;;;;;2141263;27;19983;-46
2022/07/17 00:28:52;;;;;;;;;;;;;;;;;;2141268;27;19923;-46
2022/07/17 00:29:53;;;;;;;;;;;;;;;;;;2141406;27;19975;-45
2022/07/17 00:30:54;;;;;;;;;;;;;;;;;;2141336;27;19946;-44
2022/07/17 00:31:55;;;;;;;;;;;;;;;;;;2141258;27;19970;-45
2022/07/17 00:32:56;;;;;;;;;;;;;;;;;;2141319;27;19922;-44
2022/07/17 00:33:57;;;;;;;;;;;;;;;;;;2141314;27;19923;-46
2022/07/17 00:34:57;;;;;;;;;;;;;;;;;;2141254;27;20439;-46
2022/07/17 00:35:58;;;;;;;;;;;;;;;;;;2141380;27;19957;-45
2022/07/17 00:36:59;;;;;;;;;;;;;;;;;;2141284;27;19980;-46
2022/07/17 00:38:00;;;;;;;;;;;;;;;;;;2141392;27;19930;-45
2022/07/17 00:39:01;;;;;;;;;;;;;;;;;;2141185;27;20314;-44
2022/07/17 00:40:02;;;;;;;;;;;;;;;;;;2141315;27;19938;-45
2022/07/17 00:41:03;;;;;;;;;;;;;;;;;;2141042;27;19965;-45
2022/07/17 00:42:03;;;;;;;;;;;;;;;;;;2141346;27;20001;-45
2022/07/17 00:43:04;;;;;;;;;;;;;;;;;;2141075;27;20379;-45
2022/07/17 00:44:06;;;;;;;;;;;;;;;;;;2141234;27;20292;-45
2022/07/17 00:45:06;;;;;;;;;;;;;;;;;;2141323;27;20018;-46
2022/07/17 00:46:07;;;;;;;;;;;;;;;;;;2141216;27;19929;-46
2022/07/17 00:47:08;;;;;;;;;;;;;;;;;;2141331;27;20018;-46
2022/07/17 00:48:09;;;;;;;;;;;;;;;;;;2141290;27;19929;-46
2022/07/17 00:49:10;;;;;;;;;;;;;;;;;;2141157;27;20367;-45
2022/07/17 00:50:11;;;;;;;;;;;;;;;;;;2141092;27;19930;-46
2022/07/17 00:51:12;;;;;;;;;;;;;;;;;;2141105;27;19931;-46
2022/07/17 00:52:13;;;;;;;;;;;;;;;;;;2140974;27;19954;-45
2022/07/17 00:53:13;;;;;;;;;;;;;;;;;;2141069;27;19965;-45
2022/07/17 00:54:14;;;;;;;;;;;;;;;;;;2141046;27;19923;-45
2022/07/17 00:55:15;;;;;;;;;;;;;;;;;;2140962;27;20438;-45
2022/07/17 00:56:36;;;;;;;;;;;;;;;;;;2140798;27;19923;-47
2022/07/17 00:57:37;;;;;;;;;;;;;;;;;;2140922;27;19930;-46
2022/07/17 00:58:38;;;;;;;;;;;;;;;;;;2141073;27;19968;-45
2022/07/17 00:59:39;;;;;;;;;;;;;;;;;;2141034;27;19922;-46
2022/07/17 01:00:40;;;;;;;;;;;;;;;;;;2141033;27;20057;-46
2022/07/17 01:01:41;;;;;;;;;;;;;;;;;;2140940;27;20029;-45
2022/07/17 01:02:42;;;;;;;;;;;;;;;;;;2141097;27;20091;-46
2022/07/17 01:03:43;;;;;;;;;;;;;;;;;;2140978;27;19930;-46
2022/07/17 01:04:43;;;;;;;;;;;;;;;;;;2141012;27;20009;-45
2022/07/17 01:05:45;;;;;;;;;;;;;;;;;;2140975;27;19929;-45
2022/07/17 01:06:45;;;;;;;;;;;;;;;;;;2140934;27;19967;-45
2022/07/17 01:07:46;;;;;;;;;;;;;;;;;;2140945;27;19923;-46
2022/07/17 01:08:47;;;;;;;;;;;;;;;;;;2141100;27;19986;-45
2022/07/17 01:09:48;;;;;;;;;;;;;;;;;;2141014;27;19950;-46
2022/07/17 01:10:49;;;;;;;;;;;;;;;;;;2140250;27;20471;-46
2022/07/17 01:11:50;;;;;;;;;;;;;;;;;;2132653;27;19923;-45
2022/07/17 01:12:50;;;;;;;;;;;;;;;;;;2132451;27;20368;-45
2022/07/17 01:13:52;;;;;;;;;;;;;;;;;;2132308;27;20025;-45
2022/07/17 01:14:52;;;;;;;;;;;;;;;;;;2132458;27;19923;-45
2022/07/17 01:15:53;;;;;;;;;;;;;;;;;;2137247;27;19923;-46
2022/07/17 01:16:54;;;;;;;;;;;;;;;;;;2140709;27;20237;-45
2022/07/17 01:17:55;;;;;;;;;;;;;;;;;;2140970;27;20010;-46
2022/07/17 01:18:56;;;;;;;;;;;;;;;;;;2140823;27;19923;-45
2022/07/17 01:19:57;;;;;;;;;;;;;;;;;;2140937;27;19973;-46
2022/07/17 01:20:58;;;;;;;;;;;;;;;;;;2140793;27;20429;-46
2022/07/17 01:21:59;;;;;;;;;;;;;;;;;;2140964;27;20343;-45
2022/07/17 01:22:59;;;;;;;;;;;;;;;;;;2140815;27;19973;-46
2022/07/17 01:24:00;;;;;;;;;;;;;;;;;;2141008;27;19930;-46
2022/07/17 01:25:01;;;;;;;;;;;;;;;;;;2140989;27;20378;-46
2022/07/17 01:26:02;;;;;;;;;;;;;;;;;;2140649;27;19970;-46
2022/07/17 01:27:03;;;;;;;;;;;;;;;;;;2141115;27;19975;-45
2022/07/17 01:28:04;;;;;;;;;;;;;;;;;;2140820;27;19930;-44
2022/07/17 01:29:04;;;;;;;;;;;;;;;;;;2140720;27;19923;-43
2022/07/17 01:30:06;;;;;;;;;;;;;;;;;;2140853;27;19947;-43
2022/07/17 01:31:06;;;;;;;;;;;;;;;;;;2140874;27;19933;-43
2022/07/17 01:32:07;;;;;;;;;;;;;;;;;;2140803;27;20530;-44
2022/07/17 01:33:11;;;;;;;;;;;;;;;;;;2140921;27;19976;-44
2022/07/17 01:34:12;;;;;;;;;;;;;;;;;;2140923;27;20391;-43
2022/07/17 01:35:13;;;;;;;;;;;;;;;;;;2140731;27;20363;-44
2022/07/17 01:36:14;;;;;;;;;;;;;;;;;;2140712;27;19929;-44
2022/07/17 01:37:15;;;;;;;;;;;;;;;;;;2140707;27;19947;-44
2022/07/17 01:38:16;;;;;;;;;;;;;;;;;;2140587;27;19997;-43
2022/07/17 01:39:16;;;;;;;;;;;;;;;;;;2140747;27;19942;-43
2022/07/17 01:40:17;;;;;;;;;;;;;;;;;;2140931;27;19958;-46
2022/07/17 01:41:18;;;;;;;;;;;;;;;;;;2140573;27;20021;-46
2022/07/17 01:42:19;;;;;;;;;;;;;;;;;;2140796;27;19922;-49
2022/07/17 01:43:20;;;;;;;;;;;;;;;;;;2140821;27;20001;-47
2022/07/17 01:44:21;;;;;;;;;;;;;;;;;;2140835;27;19923;-46
2022/07/17 01:45:22;;;;;;;;;;;;;;;;;;2140779;27;20398;-45
2022/07/17 01:46:23;;;;;;;;;;;;;;;;;;2140582;27;20021;-47
2022/07/17 01:47:24;;;;;;;;;;;;;;;;;;2140719;27;19958;-46
2022/07/17 01:48:24;;;;;;;;;;;;;;;;;;2140828;27;19923;-46
2022/07/17 01:49:25;;;;;;;;;;;;;;;;;;2140843;27;19962;-46
2022/07/17 01:50:26;;;;;;;;;;;;;;;;;;2140656;27;19991;-46
2022/07/17 01:51:27;;;;;;;;;;;;;;;;;;2140589;27;19922;-45
2022/07/17 01:52:31;;;;;;;;;;;;;;;;;;2140850;27;19929;-45
2022/07/17 01:53:32;;;;;;;;;;;;;;;;;;2140588;27;20026;-45
2022/07/17 01:54:33;;;;;;;;;;;;;;;;;;2141007;27;20344;-45
2022/07/17 01:55:34;;;;;;;;;;;;;;;;;;2140785;27;19930;-45
2022/07/17 01:56:35;;;;;;;;;;;;;;;;;;2140605;27;20055;-47
2022/07/17 01:57:36;;;;;;;;;;;;;;;;;;2140799;27;19922;-43
2022/07/17 01:58:37;;;;;;;;;;;;;;;;;;2140779;27;20001;-44
2022/07/17 01:59:38;;;;;;;;;;;;;;;;;;2140704;27;19923;-45
2022/07/17 02:00:38;;;;;;;;;;;;;;;;;;2140626;27;19972;-42
2022/07/17 02:01:39;;;;;;;;;;;;;;;;;;2140429;27;19922;-43
2022/07/17 02:02:40;;;;;;;;;;;;;;;;;;2140546;27;19929;-42
2022/07/17 02:03:41;;;;;;;;;;;;;;;;;;2140867;27;20013;-45
2022/07/17 02:04:42;;;;;;;;;;;;;;;;;;2140694;27;20017;-45
2022/07/17 02:05:43;;;;;;;;;;;;;;;;;;2140570;27;20279;-45
2022/07/17 02:06:44;;;;;;;;;;;;;;;;;;2140503;27;20014;-45
2022/07/17 02:07:45;;;;;;;;;;;;;;;;;;2140550;27;20371;-48
2022/07/17 02:08:45;;;;;;;;;;;;;;;;;;2140428;27;19998;-46
2022/07/17 02:09:46;;;;;;;;;;;;;;;;;;2140681;27;20005;-46
2022/07/17 02:10:47;;;;;;;;;;;;;;;;;;2140581;27;20009;-46
2022/07/17 02:11:48;;;;;;;;;;;;;;;;;;2134746;27;20015;-46
2022/07/17 02:12:52;;;;;;;;;;;;;;;;;;2140373;27;20291;-45
2022/07/17 02:13:53;;;;;;;;;;;;;;;;;;2140657;27;19923;-46
2022/07/17 02:14:54;;;;;;;;;;;;;;;;;;2140551;27;20366;-45
2022/07/17 02:15:55;;;;;;;;;;;;;;;;;;2140430;27;20311;-45
2022/07/17 02:16:56;;;;;;;;;;;;;;;;;;2140768;27;19923;-44
2022/07/17 02:17:57;;;;;;;;;;;;;;;;;;2140585;27;20021;-45
2022/07/17 02:18:58;;;;;;;;;;;;;;;;;;2140740;27;19968;-46
2022/07/17 02:19:59;;;;;;;;;;;;;;;;;;2140528;27;19923;-45
2022/07/17 02:20:59;;;;;;;;;;;;;;;;;;2140769;27;19946;-46
2022/07/17 02:22:00;;;;;;;;;;;;;;;;;;2140445;27;19923;-45
2022/07/17 02:23:01;;;;;;;;;;;;;;;;;;2139667;27;19975;-45
2022/07/17 02:24:02;;;;;;;;;;;;;;;;;;2140373;27;20432;-45
2022/07/17 02:25:03;;;;;;;;;;;;;;;;;;2140594;27;19922;-45
2022/07/17 02:26:04;;;;;;;;;;;;;;;;;;2140299;27;20191;-44
2022/07/17 02:27:05;;;;;;;;;;;;;;;;;;2140451;27;20350;-45
2022/07/17 02:28:06;;;;;;;;;;;;;;;;;;2141078;27;20792;-46
2022/07/17 02:29:07;;;;;;;;;;;;;;;;;;2140572;27;19969;-46
2022/07/17 02:30:08;;;;;;;;;;;;;;;;;;2140496;27;19927;-45
2022/07/17 02:31:09;;;;;;;;;;;;;;;;;;2140332;27;19962;-46
2022/07/17 02:32:10;;;;;;;;;;;;;;;;;;2140591;27;19922;-45
2022/07/17 02:33:11;;;;;;;;;;;;;;;;;;2140310;27;19930;-45
2022/07/17 02:34:12;;;;;;;;;;;;;;;;;;2140545;27;20013;-45
2022/07/17 02:35:12;;;;;;;;;;;;;;;;;;2140392;27;19931;-45
2022/07/17 02:36:13;;;;;;;;;;;;;;;;;;2140331;27;19966;-46
2022/07/17 02:37:14;;;;;;;;;;;;;;;;;;2140422;27;20043;-45
2022/07/17 02:38:15;;;;;;;;;;;;;;;;;;2140630;27;19990;-43
2022/07/17 02:39:16;;;;;;;;;;;;;;;;;;2140468;27;20299;-43
2022/07/17 02:40:17;;;;;;;;;;;;;;;;;;2140325;27;19951;-43
2022/07/17 02:41:18;;;;;;;;;;;;;;;;;;2140481;27;19974;-43
2022/07/17 02:42:19;;;;;;;;;;;;;;;;;;2140229;27;19945;-43
2022/07/17 02:43:20;;;;;;;;;;;;;;;;;;2140486;27;19958;-43
2022/07/17 02:44:21;;;;;;;;;;;;;;;;;;2140649;27;20029;-45
2022/07/17 02:45:24;;;;;;;;;;;;;;;;;;2140479;27;19927;-45
2022/07/17 02:46:25;;;;;;;;;;;;;;;;;;2140179;27;19994;-46
2022/07/17 02:47:26;;;;;;;;;;;;;;;;;;2140461;27;20045;-45
2022/07/17 02:48:27;;;;;;;;;;;;;;;;;;2140278;27;19923;-45
2022/07/17 02:49:28;;;;;;;;;;;;;;;;;;2140412;27;19923;-45
2022/07/17 02:50:28;;;;;;;;;;;;;;;;;;2140361;27;20259;-45
2022/07/17 02:51:29;;;;;;;;;;;;;;;;;;2140419;27;19929;-45
2022/07/17 02:52:30;;;;;;;;;;;;;;;;;;2140415;27;20014;-45
2022/07/17 02:53:32;;;;;;;;;;;;;;;;;;2140330;27;20446;-45
2022/07/17 02:54:32;;;;;;;;;;;;;;;;;;2140342;27;19926;-45
2022/07/17 02:55:33;;;;;;;;;;;;;;;;;;2140204;27;19998;-44
2022/07/17 02:56:34;;;;;;;;;;;;;;;;;;2140188;27;19923;-45
2022/07/17 02:57:35;;;;;;;;;;;;;;;;;;2140181;27;19930;-45
2022/07/17 02:58:36;;;;;;;;;;;;;;;;;;2140292;27;19929;-45
2022/07/17 02:59:37;;;;;;;;;;;;;;;;;;2140409;27;20372;-45
2022/07/17 03:00:38;;;;;;;;;;;;;;;;;;2140178;27;20041;-45
2022/07/17 03:01:39;;;;;;;;;;;;;;;;;;2140358;27;19930;-46
2022/07/17 03:02:58;;;;;;;;;;;;;;;;;;2140381;27;19926;-45
2022/07/17 03:03:59;;;;;;;;;;;;;;;;;;2140349;27;20392;-45
2022/07/17 03:05:00;;;;;;;;;;;;;;;;;;2140424;27;19923;-45
2022/07/17 03:06:01;;;;;;;;;;;;;;;;;;2140202;27;19929;-45
2022/07/17 03:07:01;;;;;;;;;;;;;;;;;;2140105;27;19922;-45
2022/07/17 03:08:02;;;;;;;;;;;;;;;;;;2140169;27;20306;-45
2022/07/17 03:09:03;;;;;;;;;;;;;;;;;;2140300;27;20251;-43
2022/07/17 03:10:04;;;;;;;;;;;;;;;;;;2140268;27;20013;-43
2022/07/17 03:11:05;;;;;;;;;;;;;;;;;;2138486;27;19989;-43
2022/07/17 03:12:06;;;;;;;;;;;;;;;;;;2131559;27;20013;-43
2022/07/17 03:13:06;;;;;;;;;;;;;;;;;;2131444;27;20348;-43
2022/07/17 03:14:07;;;;;;;;;;;;;;;;;;2131759;27;19963;-44
2022/07/17 03:15:08;;;;;;;;;;;;;;;;;;2131697;27;20291;-42
2022/07/17 03:16:09;;;;;;;;;;;;;;;;;;2131430;27;19923;-43
2022/07/17 03:17:10;;;;;;;;;;;;;;;;;;2131711;27;19924;-44
2022/07/17 03:18:11;;;;;;;;;;;;;;;;;;2131514;27;19923;-43
2022/07/17 03:19:12;;;;;;;;;;;;;;;;;;2131669;27;20010;-42
2022/07/17 03:20:13;;;;;;;;;;;;;;;;;;2131533;27;20413;-43
2022/07/17 03:21:13;;;;;;;;;;;;;;;;;;2131828;27;20379;-43
2022/07/17 03:22:15;;;;;;;;;;;;;;;;;;2131789;27;20005;-45
2022/07/17 03:23:16;;;;;;;;;;;;;;;;;;2131622;27;20006;-46
2022/07/17 03:24:17;;;;;;;;;;;;;;;;;;2131551;27;20414;-45
2022/07/17 03:25:18;;;;;;;;;;;;;;;;;;2131424;27;19950;-46
2022/07/17 03:26:19;;;;;;;;;;;;;;;;;;2131456;27;19934;-45
2022/07/17 03:27:19;;;;;;;;;;;;;;;;;;2131459;27;19958;-45
2022/07/17 03:28:20;;;;;;;;;;;;;;;;;;2131518;27;19927;-45
2022/07/17 03:29:21;;;;;;;;;;;;;;;;;;2131472;27;20350;-45
2022/07/17 03:30:22;;;;;;;;;;;;;;;;;;2131608;27;19937;-45
2022/07/17 03:31:23;;;;;;;;;;;;;;;;;;2131270;27;19923;-46
2022/07/17 03:32:24;;;;;;;;;;;;;;;;;;2131803;27;19923;-43
2022/07/17 03:33:25;;;;;;;;;;;;;;;;;;2131571;27;19930;-43
2022/07/17 03:34:26;;;;;;;;;;;;;;;;;;2132220;27;19961;-43
2022/07/17 03:35:26;;;;;;;;;;;;;;;;;;2133183;27;20265;-46
2022/07/17 03:36:27;;;;;;;;;;;;;;;;;;2132885;27;19923;-45
2022/07/17 03:37:28;;;;;;;;;;;;;;;;;;2132853;27;19996;-45
2022/07/17 03:38:29;;;;;;;;;;;;;;;;;;2132925;27;19923;-46
2022/07/17 03:39:30;;;;;;;;;;;;;;;;;;2133080;27;19975;-48
2022/07/17 03:40:31;;;;;;;;;;;;;;;;;;2132858;27;20056;-46
2022/07/17 03:41:32;;;;;;;;;;;;;;;;;;2133076;27;19927;-46
2022/07/17 03:42:33;;;;;;;;;;;;;;;;;;2132880;27;19975;-46
2022/07/17 03:43:34;;;;;;;;;;;;;;;;;;2132785;27;20019;-45
2022/07/17 03:44:35;;;;;;;;;;;;;;;;;;2133012;27;19976;-45
2022/07/17 03:45:35;;;;;;;;;;;;;;;;;;2132858;27;20378;-45
2022/07/17 03:46:36;;;;;;;;;;;;;;;;;;2132764;27;19923;-45
2022/07/17 03:47:37;;;;;;;;;;;;;;;;;;2132894;27;19923;-47
2022/07/17 03:48:38;;;;;;;;;;;;;;;;;;2132931;27;19923;-46
2022/07/17 03:49:39;;;;;;;;;;;;;;;;;;2133036;27;20372;-42
2022/07/17 03:50:40;;;;;;;;;;;;;;;;;;2133383;27;19930;-44
2022/07/17 03:51:41;;;;;;;;;;;;;;;;;;2132895;27;20001;-42
2022/07/17 03:52:42;;;;;;;;;;;;;;;;;;2132966;27;19976;-43
2022/07/17 03:53:42;;;;;;;;;;;;;;;;;;2133230;27;19933;-42
2022/07/17 03:54:43;;;;;;;;;;;;;;;;;;2132845;27;19955;-43
2022/07/17 03:55:44;;;;;;;;;;;;;;;;;;2132884;27;20017;-42
2022/07/17 03:56:45;;;;;;;;;;;;;;;;;;2132704;27;19923;-42
2022/07/17 03:57:46;;;;;;;;;;;;;;;;;;2133021;27;19923;-45
2022/07/17 03:58:47;;;;;;;;;;;;;;;;;;2132578;27;19923;-45
2022/07/17 03:59:48;;;;;;;;;;;;;;;;;;2133148;27;19955;-46
2022/07/17 04:00:49;;;;;;;;;;;;;;;;;;2132856;27;19962;-46
2022/07/17 04:01:49;;;;;;;;;;;;;;;;;;2132909;27;19931;-46
2022/07/17 04:02:50;;;;;;;;;;;;;;;;;;2132963;27;20520;-45
2022/07/17 04:03:51;;;;;;;;;;;;;;;;;;2132836;27;20442;-47
2022/07/17 04:04:52;;;;;;;;;;;;;;;;;;2139567;27;19930;-46
2022/07/17 04:05:53;;;;;;;;;;;;;;;;;;2141238;27;20125;-45
2022/07/17 04:06:54;;;;;;;;;;;;;;;;;;2141488;27;20321;-47
2022/07/17 04:07:55;;;;;;;;;;;;;;;;;;2141281;27;20432;-46
2022/07/17 04:08:56;;;;;;;;;;;;;;;;;;2141524;27;19922;-47
2022/07/17 04:09:56;;;;;;;;;;;;;;;;;;2141372;27;20013;-46
2022/07/17 04:10:57;;;;;;;;;;;;;;;;;;2140691;27;19973;-48
2022/07/17 04:11:58;;;;;;;;;;;;;;;;;;2132652;27;20458;-46
2022/07/17 04:12:59;;;;;;;;;;;;;;;;;;2133197;27;20026;-46
2022/07/17 04:14:00;;;;;;;;;;;;;;;;;;2132512;27;20382;-48
2022/07/17 04:15:01;;;;;;;;;;;;;;;;;;2132739;27;19923;-46
2022/07/17 04:16:02;;;;;;;;;;;;;;;;;;2132630;27;20509;-46
2022/07/17 04:17:03;;;;;;;;;;;;;;;;;;2132630;27;19975;-46
2022/07/17 04:18:03;;;;;;;;;;;;;;;;;;2132738;27;19968;-46
2022/07/17 04:19:04;;;;;;;;;;;;;;;;;;2132732;27;19976;-46
2022/07/17 04:20:05;;;;;;;;;;;;;;;;;;2132770;27;20017;-47
2022/07/17 04:21:06;;;;;;;;;;;;;;;;;;2132852;27;20056;-46
2022/07/17 04:22:07;;;;;;;;;;;;;;;;;;2132688;27;20010;-46
2022/07/17 04:23:08;;;;;;;;;;;;;;;;;;2132643;27;20383;-46
2022/07/17 04:24:09;;;;;;;;;;;;;;;;;;2133006;27;19936;-46
2022/07/17 04:25:10;;;;;;;;;;;;;;;;;;2132841;27;19965;-47
2022/07/17 04:26:10;;;;;;;;;;;;;;;;;;2132604;27;19954;-46
2022/07/17 04:27:12;;;;;;;;;;;;;;;;;;2132681;27;20006;-46
2022/07/17 04:28:13;;;;;;;;;;;;;;;;;;2132972;27;20026;-46
2022/07/17 04:29:14;;;;;;;;;;;;;;;;;;2132633;27;20287;-46
2022/07/17 04:30:14;;;;;;;;;;;;;;;;;;2132557;27;20466;-46
2022/07/17 04:31:15;;;;;;;;;;;;;;;;;;2133100;27;19927;-44
2022/07/17 04:32:16;;;;;;;;;;;;;;;;;;2132778;27;19933;-46
2022/07/17 04:33:17;;;;;;;;;;;;;;;;;;2133153;27;19923;-46
2022/07/17 04:34:18;;;;;;;;;;;;;;;;;;2132719;27;20287;-46
2022/07/17 04:35:20;;;;;;;;;;;;;;;;;;2132508;27;19963;-48
2022/07/17 04:36:21;;;;;;;;;;;;;;;;;;2132451;27;19963;-44
2022/07/17 04:37:22;;;;;;;;;;;;;;;;;;2132925;27;20383;-43
2022/07/17 04:38:23;;;;;;;;;;;;;;;;;;2132757;27;20022;-44
2022/07/17 04:39:24;;;;;;;;;;;;;;;;;;2132552;27;19933;-46
2022/07/17 04:40:25;;;;;;;;;;;;;;;;;;2132701;27;19929;-43
2022/07/17 04:41:26;;;;;;;;;;;;;;;;;;2132598;27;19923;-47
2022/07/17 04:42:27;;;;;;;;;;;;;;;;;;2132526;27;20000;-47
2022/07/17 04:43:28;;;;;;;;;;;;;;;;;;2132459;27;19976;-47
2022/07/17 04:44:29;;;;;;;;;;;;;;;;;;2132577;27;19926;-47
2022/07/17 04:45:30;;;;;;;;;;;;;;;;;;2132056;27;20014;-46
2022/07/17 04:46:31;;;;;;;;;;;;;;;;;;2132135;27;19923;-46
2022/07/17 04:47:32;;;;;;;;;;;;;;;;;;2132983;27;19969;-44
2022/07/17 04:48:32;;;;;;;;;;;;;;;;;;2132484;27;20295;-44
2022/07/17 04:49:33;;;;;;;;;;;;;;;;;;2132891;27;19930;-44
2022/07/17 04:50:34;;;;;;;;;;;;;;;;;;2132471;27;19930;-45
2022/07/17 04:51:35;;;;;;;;;;;;;;;;;;2132794;27;20379;-48
2022/07/17 04:52:36;;;;;;;;;;;;;;;;;;2132463;27;20014;-46
2022/07/17 04:53:37;;;;;;;;;;;;;;;;;;2132715;27;20030;-48
2022/07/17 04:54:38;;;;;;;;;;;;;;;;;;2132703;27;20493;-46
2022/07/17 04:55:39;;;;;;;;;;;;;;;;;;2132759;27;19971;-43
2022/07/17 04:56:40;;;;;;;;;;;;;;;;;;2133006;27;20030;-44
2022/07/17 04:57:41;;;;;;;;;;;;;;;;;;2132938;27;19927;-44
2022/07/17 04:58:42;;;;;;;;;;;;;;;;;;2132318;27;19971;-45
2022/07/17 04:59:42;;;;;;;;;;;;;;;;;;2132782;27;20015;-45
2022/07/17 05:00:43;;;;;;;;;;;;;;;;;;2136614;27;19923;-44
2022/07/17 05:01:44;;;;;;;;;;;;;;;;;;2141251;27;19931;-46
2022/07/17 05:02:45;;;;;;;;;;;;;;;;;;2141589;27;20391;-44
2022/07/17 05:03:46;;;;;;;;;;;;;;;;;;2141398;27;20108;-44
2022/07/17 05:04:47;;;;;;;;;;;;;;;;;;2141449;27;20499;-44
2022/07/17 05:05:48;;;;;;;;;;;;;;;;;;2141063;27;20268;-47
2022/07/17 05:06:49;;;;;;;;;;;;;;;;;;2141072;27;19947;-47
2022/07/17 05:07:50;;;;;;;;;;;;;;;;;;2141380;27;19969;-47
2022/07/17 05:08:51;;;;;;;;;;;;;;;;;;2141536;27;20386;-43
2022/07/17 05:09:51;;;;;;;;;;;;;;;;;;2141156;27;20021;-45
2022/07/17 05:10:52;;;;;;;;;;;;;;;;;;2140889;27;20347;-44
2022/07/17 05:11:53;;;;;;;;;;;;;;;;;;2132549;27;19974;-44
2022/07/17 05:12:54;;;;;;;;;;;;;;;;;;2132372;27;19968;-44
2022/07/17 05:13:55;;;;;;;;;;;;;;;;;;2132277;27;19923;-43
2022/07/17 05:14:56;;;;;;;;;;;;;;;;;;2132608;27;19944;-47
2022/07/17 05:15:57;;;;;;;;;;;;;;;;;;2132194;27;19968;-46
2022/07/17 05:16:58;;;;;;;;;;;;;;;;;;2132628;27;19923;-43
2022/07/17 05:17:59;;;;;;;;;;;;;;;;;;2132375;27;19950;-43
2022/07/17 05:18:59;;;;;;;;;;;;;;;;;;2132431;27;19930;-43
2022/07/17 05:20:00;;;;;;;;;;;;;;;;;;2132210;27;19927;-45
2022/07/17 05:21:01;;;;;;;;;;;;;;;;;;2132413;27;19923;-46
2022/07/17 05:22:02;;;;;;;;;;;;;;;;;;2132705;27;19929;-47
2022/07/17 05:23:03;;;;;;;;;;;;;;;;;;2132277;27;20462;-46
2022/07/17 05:24:04;;;;;;;;;;;;;;;;;;2132925;27;19958;-44
2022/07/17 05:25:04;;;;;;;;;;;;;;;;;;2132367;27;19923;-43
2022/07/17 05:26:05;;;;;;;;;;;;;;;;;;2132295;27;19992;-43
2022/07/17 05:27:06;;;;;;;;;;;;;;;;;;2132495;27;19923;-43
2022/07/17 05:28:07;;;;;;;;;;;;;;;;;;2132577;27;19978;-44
2022/07/17 05:29:08;;;;;;;;;;;;;;;;;;2132198;27;19949;-43
2022/07/17 05:30:09;;;;;;;;;;;;;;;;;;2132137;27;19929;-43
2022/07/17 05:31:10;;;;;;;;;;;;;;;;;;2132330;27;20006;-43
2022/07/17 05:32:11;;;;;;;;;;;;;;;;;;2132278;27;20305;-44
2022/07/17 05:33:11;;;;;;;;;;;;;;;;;;2132709;27;20296;-46
2022/07/17 05:34:12;;;;;;;;;;;;;;;;;;2132409;27;19927;-47
2022/07/17 05:35:13;;;;;;;;;;;;;;;;;;2132800;27;20295;-47
2022/07/17 05:36:14;;;;;;;;;;;;;;;;;;2132003;27;20013;-46
2022/07/17 05:37:15;;;;;;;;;;;;;;;;;;2132619;27;20010;-47
2022/07/17 05:38:16;;;;;;;;;;;;;;;;;;2132442;27;20265;-46
2022/07/17 05:39:17;;;;;;;;;;;;;;;;;;2132398;27;20009;-43
2022/07/17 05:40:18;;;;;;;;;;;;;;;;;;2132345;27;19926;-43
2022/07/17 05:41:18;;;;;;;;;;;;;;;;;;2132107;27;19927;-43
2022/07/17 05:42:20;;;;;;;;;;;;;;;;;;2132449;27;19929;-43
2022/07/17 05:43:20;;;;;;;;;;;;;;;;;;2132145;27;19930;-44
2022/07/17 05:44:21;;;;;;;;;;;;;;;;;;2132147;27;20360;-43
2022/07/17 05:45:22;;;;;;;;;;;;;;;;;;2133051;27;19998;-48
2022/07/17 05:46:23;;;;;;;;;;;;;;;;;;2132485;27;19930;-46
2022/07/17 05:47:24;;;;;;;;;;;;;;;;;;2132220;27;19923;-46
2022/07/17 05:48:25;;;;;;;;;;;;;;;;;;2132171;27;19923;-46
2022/07/17 05:49:26;;;;;;;;;;;;;;;;;;2132392;27;20011;-47
2022/07/17 05:50:27;;;;;;;;;;;;;;;;;;2132194;27;20329;-46
2022/07/17 05:51:27;;;;;;;;;;;;;;;;;;2132834;27;19949;-46
2022/07/17 05:52:28;;;;;;;;;;;;;;;;;;2132592;27;19959;-46
2022/07/17 05:53:29;;;;;;;;;;;;;;;;;;2132265;27;19923;-47
2022/07/17 05:54:32;;;;;;;;;;;;;;;;;;2132512;27;20333;-44
2022/07/17 05:55:34;;;;;;;;;;;;;;;;;;2131949;27;20364;-45
2022/07/17 05:56:35;;;;;;;;;;;;;;;;;;2132495;27;19923;-46
2022/07/17 05:57:35;;;;;;;;;;;;;;;;;;2140533;27;19922;-46
2022/07/17 05:58:36;;;;;;;;;;;;;;;;;;2141191;27;20402;-43
2022/07/17 05:59:37;;;;;;;;;;;;;;;;;;2140763;27;20013;-43
2022/07/17 06:00:38;;;;;;;;;;;;;;;;;;2140516;27;19923;-43
2022/07/17 06:01:39;;;;;;;;;;;;;;;;;;2141130;27;20006;-46
2022/07/17 06:02:40;;;;;;;;;;;;;;;;;;2141111;27;19922;-44
2022/07/17 06:03:41;;;;;;;;;;;;;;;;;;2140656;27;20013;-44
2022/07/17 06:04:42;;;;;;;;;;;;;;;;;;2141197;27;20392;-43
2022/07/17 06:05:42;;;;;;;;;;;;;;;;;;2141551;27;20100;-45
2022/07/17 06:06:44;;;;;;;;;;;;;;;;;;2141345;27;19927;-48
2022/07/17 06:07:44;;;;;;;;;;;;;;;;;;2141154;27;19923;-46
2022/07/17 06:08:45;;;;;;;;;;;;;;;;;;2141010;27;20378;-47
2022/07/17 06:09:46;;;;;;;;;;;;;;;;;;2140833;27;19923;-47
2022/07/17 06:10:47;;;;;;;;;;;;;;;;;;2141097;27;19923;-44
2022/07/17 06:11:48;;;;;;;;;;;;;;;;;;2132718;27;19973;-44
2022/07/17 06:12:49;;;;;;;;;;;;;;;;;;2131859;27;20018;-44
2022/07/17 06:13:50;;;;;;;;;;;;;;;;;;2132309;27;20330;-46
2022/07/17 06:14:51;;;;;;;;;;;;;;;;;;2132445;27;19923;-47
2022/07/17 06:15:52;;;;;;;;;;;;;;;;;;2131767;27;20446;-48
2022/07/17 06:16:53;;;;;;;;;;;;;;;;;;2131845;27;19933;-49
2022/07/17 06:17:54;;;;;;;;;;;;;;;;;;2132066;27;20372;-47
2022/07/17 06:18:55;;;;;;;;;;;;;;;;;;2132289;27;19923;-48
2022/07/17 06:19:56;;;;;;;;;;;;;;;;;;2131969;27;19923;-46
2022/07/17 06:20:57;;;;;;;;;;;;;;;;;;2132435;27;19923;-46
2022/07/17 06:21:57;;;;;;;;;;;;;;;;;;2132228;27;19923;-46
2022/07/17 06:22:58;;;;;;;;;;;;;;;;;;2132255;27;20307;-48
2022/07/17 06:23:59;;;;;;;;;;;;;;;;;;2132091;27;20341;-47
2022/07/17 06:25:00;;;;;;;;;;;;;;;;;;2132383;27;20009;-44
2022/07/17 06:26:01;;;;;;;;;;;;;;;;;;2131724;27;20017;-43
2022/07/17 06:27:02;;;;;;;;;;;;;;;;;;2132481;27;20216;-46
2022/07/17 06:28:02;;;;;;;;;;;;;;;;;;2132559;27;19936;-44
2022/07/17 06:29:03;;;;;;;;;;;;;;;;;;2131819;27;20321;-43
2022/07/17 06:30:04;;;;;;;;;;;;;;;;;;2132153;27;19952;-43
2022/07/17 06:31:05;;;;;;;;;;;;;;;;;;2132820;27;20031;-49
2022/07/17 06:32:06;;;;;;;;;;;;;;;;;;2131983;27;19953;-44
2022/07/17 06:33:07;;;;;;;;;;;;;;;;;;2132544;27;19965;-45
2022/07/17 06:34:08;;;;;;;;;;;;;;;;;;2131645;27;20023;-45
2022/07/17 06:35:09;;;;;;;;;;;;;;;;;;2133008;27;19937;-48
2022/07/17 06:36:10;;;;;;;;;;;;;;;;;;2132279;27;20340;-45
2022/07/17 06:37:11;;;;;;;;;;;;;;;;;;2132242;27;20439;-48
2022/07/17 06:38:12;;;;;;;;;;;;;;;;;;2132052;27;19930;-49
2022/07/17 06:39:13;;;;;;;;;;;;;;;;;;2131923;27;19923;-46
2022/07/17 06:40:14;;;;;;;;;;;;;;;;;;2132085;27;19964;-48
2022/07/17 06:41:14;;;;;;;;;;;;;;;;;;2132219;27;19923;-48
2022/07/17 06:42:16;;;;;;;;;;;;;;;;;;2132347;27;20347;-48
2022/07/17 06:43:17;;;;;;;;;;;;;;;;;;2131871;27;20439;-45
2022/07/17 06:44:18;;;;;;;;;;;;;;;;;;2131747;27;19923;-45
2022/07/17 06:45:19;;;;;;;;;;;;;;;;;;2132360;27;20360;-46
2022/07/17 06:46:20;;;;;;;;;;;;;;;;;;2131744;27;19930;-45
2022/07/17 06:47:21;;;;;;;;;;;;;;;;;;2132132;27;20019;-48
2022/07/17 06:48:22;;;;;;;;;;;;;;;;;;2132514;27;19950;-43
2022/07/17 06:49:24;;;;;;;;;;;;;;;;;;2131707;27;19965;-43
2022/07/17 06:50:25;;;;;;;;;;;;;;;;;;2131762;27;20022;-46
2022/07/17 06:51:25;;;;;;;;;;;;;;;;;;2131931;27;19992;-43
2022/07/17 06:52:27;;;;;;;;;;;;;;;;;;2131802;27;19923;-44
2022/07/17 06:53:31;;;;;;;;;;;;;;;;;;2137549;27;19966;-43
2022/07/17 06:54:32;;;;;;;;;;;;;;;;;;2140199;27;19923;-44
2022/07/17 06:55:32;;;;;;;;;;;;;;;;;;2141264;27;19948;-51
2022/07/17 06:56:33;;;;;;;;;;;;;;;;;;2140190;27;20515;-47